Terminal Aerodrome Forecast
Issued by NWS

Home | Current Version | Previous Version | Text Only | Print | Product List | Glossary On
Versions: 1 2 3 4 5 6 7 8 9 10 11 12 13 14 15 16 17 18 19 20 21 22 23 24 25 26 27 28 29
000
FTUS45 KGGW 021700
TAFGDV
TAF
KGDV 021723Z 0218/0318 29012KT 6SM -SHRA FEW015 BKN070
      TEMPO 0218/0221 4SM -SHRA
     FM022100 32010KT P6SM VCSH OVC025
     FM030300 36008KT P6SM BKN025 BKN040
      AMD LTD TO CLD VIS AND WIND=

USA.gov is the U.S. government's official web portal to all federal, state and local government web resources and services.